Terminal Aerodrome Forecast
Issued by NWS Duluth, MN

Home | Current Version | Previous Version | Text Only | Print | Product List | Glossary On
Versions: 1 2 3 4 5 6 7 8 9 10 11 12 13 14 15 16 17 18 19 20 21 22 23 24 25 26 27
000
FTUS43 KDLH 202300
TAFINL
TAF
KINL 202336Z 2100/2124 VRB04KT P6SM SKC
     FM211000 18008KT P6SM BKN120
     FM211500 19012KT P6SM SCT025 OVC080
     FM211800 20012G22KT P6SM BKN025 OVC060=

USA.gov is the U.S. government's official web portal to all federal, state and local government web resources and services.